sensor_id;sensor_type;location;lat;lon;timestamp;pressure;altitude;pressure_sealevel;temperature
41710;BMP280;59402;48.396;-4.472;2022-08-21T00:00:37;101477.28;;;18.20
41710;BMP280;59402;48.396;-4.472;2022-08-21T00:03:04;101472.09;;;18.20
41710;BMP280;59402;48.396;-4.472;2022-08-21T00:05:30;101466.38;;;18.17
41710;BMP280;59402;48.396;-4.472;2022-08-21T00:07:56;101467.69;;;18.13
41710;BMP280;59402;48.396;-4.472;2022-08-21T00:10:22;101467.69;;;18.13
41710;BMP280;59402;48.396;-4.472;2022-08-21T00:12:47;101433.81;;;18.14
41710;BMP280;59402;48.396;-4.472;2022-08-21T00:15:15;101433.81;;;18.14
41710;BMP280;59402;48.396;-4.472;2022-08-21T00:17:40;101433.81;;;18.14
41710;BMP280;59402;48.396;-4.472;2022-08-21T00:20:06;101433.81;;;18.14
41710;BMP280;59402;48.396;-4.472;2022-08-21T00:22:33;101433.81;;;18.14
41710;BMP280;59402;48.396;-4.472;2022-08-21T00:24:59;101433.81;;;18.14
41710;BMP280;59402;48.396;-4.472;2022-08-21T00:27:24;101433.81;;;18.14
41710;BMP280;59402;48.396;-4.472;2022-08-21T00:29:50;101433.81;;;18.14
41710;BMP280;59402;48.396;-4.472;2022-08-21T00:32:25;101433.81;;;18.14
41710;BMP280;59402;48.396;-4.472;2022-08-21T00:34:50;101433.81;;;18.14
41710;BMP280;59402;48.396;-4.472;2022-08-21T00:37:16;101433.81;;;18.14
41710;BMP280;59402;48.396;-4.472;2022-08-21T00:39:42;101420.25;;;18.20
41710;BMP280;59402;48.396;-4.472;2022-08-21T00:42:08;101432.03;;;18.15
41710;BMP280;59402;48.396;-4.472;2022-08-21T00:44:33;101436.13;;;18.17
41710;BMP280;59402;48.396;-4.472;2022-08-21T00:46:59;101440.47;;;18.17
41710;BMP280;59402;48.396;-4.472;2022-08-21T00:49:24;101458.16;;;18.21
41710;BMP280;59402;48.396;-4.472;2022-08-21T00:51:51;101453.47;;;18.25
41710;BMP280;59402;48.396;-4.472;2022-08-21T00:54:19;101459.44;;;18.17
41710;BMP280;59402;48.396;-4.472;2022-08-21T00:56:50;101462.84;;;18.18
41710;BMP280;59402;48.396;-4.472;2022-08-21T00:59:18;101469.16;;;18.15
41710;BMP280;59402;48.396;-4.472;2022-08-21T01:01:44;101470.06;;;18.07
41710;BMP280;59402;48.396;-4.472;2022-08-21T01:04:09;101471.38;;;18.10
41710;BMP280;59402;48.396;-4.472;2022-08-21T01:06:35;101473.69;;;18.13
41710;BMP280;59402;48.396;-4.472;2022-08-21T01:09:00;101462.34;;;18.14
41710;BMP280;59402;48.396;-4.472;2022-08-21T01:11:25;101465.72;;;18.07
41710;BMP280;59402;48.396;-4.472;2022-08-21T01:13:51;101462.16;;;18.08
41710;BMP280;59402;48.396;-4.472;2022-08-21T01:16:17;101462.94;;;18.08
41710;BMP280;59402;48.396;-4.472;2022-08-21T01:18:44;101462.28;;;18.07
41710;BMP280;59402;48.396;-4.472;2022-08-21T01:21:14;101462.28;;;18.07
41710;BMP280;59402;48.396;-4.472;2022-08-21T01:23:40;101462.28;;;18.07
41710;BMP280;59402;48.396;-4.472;2022-08-21T01:26:06;101462.28;;;18.07
41710;BMP280;59402;48.396;-4.472;2022-08-21T01:28:32;101462.28;;;18.07
41710;BMP280;59402;48.396;-4.472;2022-08-21T01:30:58;101462.28;;;18.07
41710;BMP280;59402;48.396;-4.472;2022-08-21T01:33:24;101439.13;;;18.05
41710;BMP280;59402;48.396;-4.472;2022-08-21T01:35:50;101461.13;;;18.01
41710;BMP280;59402;48.396;-4.472;2022-08-21T01:38:16;101452.06;;;18.05
41710;BMP280;59402;48.396;-4.472;2022-08-21T01:40:41;101457.63;;;18.10
41710;BMP280;59402;48.396;-4.472;2022-08-21T01:43:07;101458.47;;;18.18
41710;BMP280;59402;48.396;-4.472;2022-08-21T01:45:32;101455.56;;;18.21
41710;BMP280;59402;48.396;-4.472;2022-08-21T01:47:57;101463.19;;;18.23
41710;BMP280;59402;48.396;-4.472;2022-08-21T01:50:23;101464.97;;;18.22
41710;BMP280;59402;48.396;-4.472;2022-08-21T01:52:49;101452.34;;;18.19
41710;BMP280;59402;48.396;-4.472;2022-08-21T01:55:15;101443.72;;;18.19
41710;BMP280;59402;48.396;-4.472;2022-08-21T01:57:41;101440.50;;;18.25
41710;BMP280;59402;48.396;-4.472;2022-08-21T02:00:08;101442.28;;;18.24
41710;BMP280;59402;48.396;-4.472;2022-08-21T02:02:37;101434.38;;;18.26
41710;BMP280;59402;48.396;-4.472;2022-08-21T02:05:03;101434.38;;;18.26
41710;BMP280;59402;48.396;-4.472;2022-08-21T02:07:35;101427.53;;;18.25
41710;BMP280;59402;48.396;-4.472;2022-08-21T02:10:00;101424.66;;;18.28
41710;BMP280;59402;48.396;-4.472;2022-08-21T02:12:26;101425.13;;;18.31
41710;BMP280;59402;48.396;-4.472;2022-08-21T02:14:51;101425.13;;;18.31
41710;BMP280;59402;48.396;-4.472;2022-08-21T02:17:16;101410.06;;;18.27
41710;BMP280;59402;48.396;-4.472;2022-08-21T02:19:42;101410.06;;;18.27
41710;BMP280;59402;48.396;-4.472;2022-08-21T02:22:09;101410.06;;;18.27
41710;BMP280;59402;48.396;-4.472;2022-08-21T02:24:34;101410.06;;;18.27
41710;BMP280;59402;48.396;-4.472;2022-08-21T02:27:00;101394.03;;;18.31
41710;BMP280;59402;48.396;-4.472;2022-08-21T02:29:26;101406.97;;;18.31
41710;BMP280;59402;48.396;-4.472;2022-08-21T02:31:51;101406.97;;;18.31
41710;BMP280;59402;48.396;-4.472;2022-08-21T02:34:16;101406.97;;;18.31
41710;BMP280;59402;48.396;-4.472;2022-08-21T02:36:42;101389.31;;;18.27
41710;BMP280;59402;48.396;-4.472;2022-08-21T02:39:07;101393.38;;;18.29
41710;BMP280;59402;48.396;-4.472;2022-08-21T02:41:32;101393.38;;;18.29
41710;BMP280;59402;48.396;-4.472;2022-08-21T02:43:58;101388.00;;;18.23
41710;BMP280;59402;48.396;-4.472;2022-08-21T02:46:23;101403.25;;;18.26
41710;BMP280;59402;48.396;-4.472;2022-08-21T02:48:49;101403.25;;;18.26
41710;BMP280;59402;48.396;-4.472;2022-08-21T02:51:16;101403.25;;;18.26
41710;BMP280;59402;48.396;-4.472;2022-08-21T02:53:43;101403.25;;;18.26
41710;BMP280;59402;48.396;-4.472;2022-08-21T02:56:09;101403.25;;;18.26
41710;BMP280;59402;48.396;-4.472;2022-08-21T02:58:40;101403.25;;;18.26
41710;BMP280;59402;48.396;-4.472;2022-08-21T03:01:07;101403.25;;;18.26
41710;BMP280;59402;48.396;-4.472;2022-08-21T03:03:35;101403.25;;;18.26
41710;BMP280;59402;48.396;-4.472;2022-08-21T03:06:00;101368.28;;;18.30
41710;BMP280;59402;48.396;-4.472;2022-08-21T03:08:26;101368.28;;;18.30
41710;BMP280;59402;48.396;-4.472;2022-08-21T03:10:51;101368.28;;;18.30
41710;BMP280;59402;48.396;-4.472;2022-08-21T03:13:17;101368.28;;;18.30
41710;BMP280;59402;48.396;-4.472;2022-08-21T03:15:43;101374.91;;;18.24
41710;BMP280;59402;48.396;-4.472;2022-08-21T03:18:09;101400.50;;;18.27
41710;BMP280;59402;48.396;-4.472;2022-08-21T03:20:35;101395.81;;;18.31
41710;BMP280;59402;48.396;-4.472;2022-08-21T03:23:01;101395.81;;;18.31
41710;BMP280;59402;48.396;-4.472;2022-08-21T03:25:28;101395.81;;;18.31
41710;BMP280;59402;48.396;-4.472;2022-08-21T03:27:54;101374.56;;;18.27
41710;BMP280;59402;48.396;-4.472;2022-08-21T03:30:20;101374.56;;;18.27
41710;BMP280;59402;48.396;-4.472;2022-08-21T03:32:49;101374.56;;;18.27
41710;BMP280;59402;48.396;-4.472;2022-08-21T03:35:15;101374.56;;;18.27
41710;BMP280;59402;48.396;-4.472;2022-08-21T03:37:41;101378.44;;;18.23
41710;BMP280;59402;48.396;-4.472;2022-08-21T03:40:07;101378.44;;;18.23
41710;BMP280;59402;48.396;-4.472;2022-08-21T03:42:33;101378.44;;;18.23
41710;BMP280;59402;48.396;-4.472;2022-08-21T03:44:59;101378.44;;;18.23
41710;BMP280;59402;48.396;-4.472;2022-08-21T03:47:24;101378.44;;;18.23
41710;BMP280;59402;48.396;-4.472;2022-08-21T03:49:50;101378.44;;;18.23
41710;BMP280;59402;48.396;-4.472;2022-08-21T03:52:15;101378.44;;;18.23
41710;BMP280;59402;48.396;-4.472;2022-08-21T03:54:42;101378.44;;;18.23
41710;BMP280;59402;48.396;-4.472;2022-08-21T03:57:08;101378.44;;;18.23
41710;BMP280;59402;48.396;-4.472;2022-08-21T03:59:34;101378.44;;;18.23
41710;BMP280;59402;48.396;-4.472;2022-08-21T04:02:00;101378.44;;;18.23
41710;BMP280;59402;48.396;-4.472;2022-08-21T04:04:26;101378.44;;;18.23
41710;BMP280;59402;48.396;-4.472;2022-08-21T04:06:52;101378.44;;;18.23
41710;BMP280;59402;48.396;-4.472;2022-08-21T04:09:18;101378.44;;;18.23
41710;BMP280;59402;48.396;-4.472;2022-08-21T04:11:44;101378.44;;;18.23
41710;BMP280;59402;48.396;-4.472;2022-08-21T04:14:10;101378.44;;;18.23
41710;BMP280;59402;48.396;-4.472;2022-08-21T04:16:36;101378.44;;;18.23
41710;BMP280;59402;48.396;-4.472;2022-08-21T04:19:01;101378.44;;;18.23
41710;BMP280;59402;48.396;-4.472;2022-08-21T04:21:27;101378.44;;;18.23
41710;BMP280;59402;48.396;-4.472;2022-08-21T04:23:55;101378.44;;;18.23
41710;BMP280;59402;48.396;-4.472;2022-08-21T04:26:21;101378.44;;;18.23
41710;BMP280;59402;48.396;-4.472;2022-08-21T04:28:46;101378.44;;;18.23
41710;BMP280;59402;48.396;-4.472;2022-08-21T04:31:12;101378.44;;;18.23
41710;BMP280;59402;48.396;-4.472;2022-08-21T04:33:37;101378.44;;;18.23
41710;BMP280;59402;48.396;-4.472;2022-08-21T04:36:03;101378.44;;;18.23
41710;BMP280;59402;48.396;-4.472;2022-08-21T04:38:28;101378.44;;;18.23
41710;BMP280;59402;48.396;-4.472;2022-08-21T04:40:56;101378.44;;;18.23
41710;BMP280;59402;48.396;-4.472;2022-08-21T04:43:22;101378.44;;;18.23
41710;BMP280;59402;48.396;-4.472;2022-08-21T04:45:48;101378.44;;;18.23
41710;BMP280;59402;48.396;-4.472;2022-08-21T04:48:15;101378.44;;;18.23
41710;BMP280;59402;48.396;-4.472;2022-08-21T04:50:42;101378.44;;;18.23
41710;BMP280;59402;48.396;-4.472;2022-08-21T04:53:10;101378.44;;;18.23
41710;BMP280;59402;48.396;-4.472;2022-08-21T04:55:37;101378.44;;;18.23
41710;BMP280;59402;48.396;-4.472;2022-08-21T04:58:04;101378.44;;;18.23
41710;BMP280;59402;48.396;-4.472;2022-08-21T05:00:29;101378.44;;;18.23
41710;BMP280;59402;48.396;-4.472;2022-08-21T05:02:54;101378.44;;;18.23
41710;BMP280;59402;48.396;-4.472;2022-08-21T05:05:24;101378.44;;;18.23
41710;BMP280;59402;48.396;-4.472;2022-08-21T05:07:49;101378.44;;;18.23
41710;BMP280;59402;48.396;-4.472;2022-08-21T05:10:15;101359.41;;;17.99
41710;BMP280;59402;48.396;-4.472;2022-08-21T05:12:41;101359.41;;;17.99
41710;BMP280;59402;48.396;-4.472;2022-08-21T05:15:07;101359.41;;;17.99
41710;BMP280;59402;48.396;-4.472;2022-08-21T05:17:33;101359.41;;;17.99
41710;BMP280;59402;48.396;-4.472;2022-08-21T05:19:58;101359.41;;;17.99
41710;BMP280;59402;48.396;-4.472;2022-08-21T05:22:24;101359.41;;;17.99
41710;BMP280;59402;48.396;-4.472;2022-08-21T05:24:50;101359.41;;;17.99
41710;BMP280;59402;48.396;-4.472;2022-08-21T05:27:15;101359.41;;;17.99
41710;BMP280;59402;48.396;-4.472;2022-08-21T05:29:41;101367.13;;;17.91
41710;BMP280;59402;48.396;-4.472;2022-08-21T05:32:08;101377.34;;;17.93
41710;BMP280;59402;48.396;-4.472;2022-08-21T05:34:33;101382.03;;;17.89
41710;BMP280;59402;48.396;-4.472;2022-08-21T05:36:59;101382.03;;;17.89
41710;BMP280;59402;48.396;-4.472;2022-08-21T05:39:24;101382.03;;;17.89
41710;BMP280;59402;48.396;-4.472;2022-08-21T05:41:49;101382.03;;;17.89
41710;BMP280;59402;48.396;-4.472;2022-08-21T05:44:15;101363.56;;;17.84
41710;BMP280;59402;48.396;-4.472;2022-08-21T05:46:40;101363.56;;;17.84
41710;BMP280;59402;48.396;-4.472;2022-08-21T05:49:05;101362.56;;;17.85
41710;BMP280;59402;48.396;-4.472;2022-08-21T05:51:31;101369.53;;;17.85
41710;BMP280;59402;48.396;-4.472;2022-08-21T05:53:56;101372.28;;;17.83
41710;BMP280;59402;48.396;-4.472;2022-08-21T05:56:22;101372.28;;;17.83
41710;BMP280;59402;48.396;-4.472;2022-08-21T05:58:47;101390.13;;;17.86
41710;BMP280;59402;48.396;-4.472;2022-08-21T06:01:12;101405.53;;;17.88
41710;BMP280;59402;48.396;-4.472;2022-08-21T06:03:40;101405.53;;;17.88
41710;BMP280;59402;48.396;-4.472;2022-08-21T06:06:05;101396.31;;;17.93
41710;BMP280;59402;48.396;-4.472;2022-08-21T06:08:31;101392.75;;;17.94
41710;BMP280;59402;48.396;-4.472;2022-08-21T06:10:57;101392.75;;;17.94
41710;BMP280;59402;48.396;-4.472;2022-08-21T06:13:24;101392.75;;;17.94
41710;BMP280;59402;48.396;-4.472;2022-08-21T06:15:49;101392.75;;;17.94
41710;BMP280;59402;48.396;-4.472;2022-08-21T06:18:15;101392.75;;;17.94
41710;BMP280;59402;48.396;-4.472;2022-08-21T06:20:41;101392.75;;;17.94
41710;BMP280;59402;48.396;-4.472;2022-08-21T06:23:06;101392.75;;;17.94
41710;BMP280;59402;48.396;-4.472;2022-08-21T06:25:32;101392.75;;;17.94
41710;BMP280;59402;48.396;-4.472;2022-08-21T06:28:02;101392.75;;;17.94
41710;BMP280;59402;48.396;-4.472;2022-08-21T06:30:28;101392.75;;;17.94
41710;BMP280;59402;48.396;-4.472;2022-08-21T06:32:53;101365.03;;;18.28
41710;BMP280;59402;48.396;-4.472;2022-08-21T06:35:19;101365.03;;;18.28
41710;BMP280;59402;48.396;-4.472;2022-08-21T06:37:44;101369.72;;;18.32
41710;BMP280;59402;48.396;-4.472;2022-08-21T06:40:10;101369.72;;;18.32
41710;BMP280;59402;48.396;-4.472;2022-08-21T06:42:35;101369.72;;;18.32
41710;BMP280;59402;48.396;-4.472;2022-08-21T06:45:00;101369.72;;;18.32
41710;BMP280;59402;48.396;-4.472;2022-08-21T06:47:26;101369.72;;;18.32
41710;BMP280;59402;48.396;-4.472;2022-08-21T06:49:51;101369.72;;;18.32
41710;BMP280;59402;48.396;-4.472;2022-08-21T06:52:17;101369.72;;;18.32
41710;BMP280;59402;48.396;-4.472;2022-08-21T06:54:42;101369.72;;;18.32
41710;BMP280;59402;48.396;-4.472;2022-08-21T06:57:07;101369.72;;;18.32
41710;BMP280;59402;48.396;-4.472;2022-08-21T06:59:33;101369.72;;;18.32
41710;BMP280;59402;48.396;-4.472;2022-08-21T07:01:59;101369.72;;;18.32
41710;BMP280;59402;48.396;-4.472;2022-08-21T07:04:24;101369.72;;;18.32
41710;BMP280;59402;48.396;-4.472;2022-08-21T07:06:49;101369.72;;;18.32
41710;BMP280;59402;48.396;-4.472;2022-08-21T07:09:15;101369.72;;;18.32
41710;BMP280;59402;48.396;-4.472;2022-08-21T07:11:40;101369.72;;;18.32
41710;BMP280;59402;48.396;-4.472;2022-08-21T07:14:05;101369.72;;;18.32
41710;BMP280;59402;48.396;-4.472;2022-08-21T07:16:31;101369.72;;;18.32
41710;BMP280;59402;48.396;-4.472;2022-08-21T07:18:56;101369.72;;;18.32
41710;BMP280;59402;48.396;-4.472;2022-08-21T07:21:22;101369.72;;;18.32
41710;BMP280;59402;48.396;-4.472;2022-08-21T07:23:48;101369.72;;;18.32
41710;BMP280;59402;48.396;-4.472;2022-08-21T07:26:15;101369.72;;;18.32
41710;BMP280;59402;48.396;-4.472;2022-08-21T07:28:41;101369.72;;;18.32
41710;BMP280;59402;48.396;-4.472;2022-08-21T07:31:06;101369.72;;;18.32
41710;BMP280;59402;48.396;-4.472;2022-08-21T07:33:34;101369.72;;;18.32
41710;BMP280;59402;48.396;-4.472;2022-08-21T07:36:00;101369.72;;;18.32
41710;BMP280;59402;48.396;-4.472;2022-08-21T07:38:26;101369.72;;;18.32
41710;BMP280;59402;48.396;-4.472;2022-08-21T07:40:52;101369.72;;;18.32
41710;BMP280;59402;48.396;-4.472;2022-08-21T07:43:19;101369.72;;;18.32
41710;BMP280;59402;48.396;-4.472;2022-08-21T07:45:46;101369.72;;;18.32
41710;BMP280;59402;48.396;-4.472;2022-08-21T07:48:12;101369.72;;;18.32
41710;BMP280;59402;48.396;-4.472;2022-08-21T07:50:37;101369.72;;;18.32
41710;BMP280;59402;48.396;-4.472;2022-08-21T07:53:03;101369.72;;;18.32
41710;BMP280;59402;48.396;-4.472;2022-08-21T07:55:29;101369.72;;;18.32
41710;BMP280;59402;48.396;-4.472;2022-08-21T07:57:54;101369.72;;;18.32
41710;BMP280;59402;48.396;-4.472;2022-08-21T08:00:22;101369.72;;;18.32
41710;BMP280;59402;48.396;-4.472;2022-08-21T08:02:48;101369.72;;;18.32
41710;BMP280;59402;48.396;-4.472;2022-08-21T08:05:17;101369.72;;;18.32
41710;BMP280;59402;48.396;-4.472;2022-08-21T08:07:43;101369.72;;;18.32
41710;BMP280;59402;48.396;-4.472;2022-08-21T08:10:09;101369.72;;;18.32
41710;BMP280;59402;48.396;-4.472;2022-08-21T08:12:35;101369.72;;;18.32
41710;BMP280;59402;48.396;-4.472;2022-08-21T08:15:01;101369.72;;;18.32
41710;BMP280;59402;48.396;-4.472;2022-08-21T08:17:27;101369.72;;;18.32
41710;BMP280;59402;48.396;-4.472;2022-08-21T08:19:53;101369.72;;;18.32
41710;BMP280;59402;48.396;-4.472;2022-08-21T08:22:20;101355.75;;;18.25
41710;BMP280;59402;48.396;-4.472;2022-08-21T08:24:46;101355.75;;;18.25
41710;BMP280;59402;48.396;-4.472;2022-08-21T08:27:12;101355.75;;;18.25
41710;BMP280;59402;48.396;-4.472;2022-08-21T08:29:37;101355.75;;;18.25
41710;BMP280;59402;48.396;-4.472;2022-08-21T08:32:03;101355.75;;;18.25
41710;BMP280;59402;48.396;-4.472;2022-08-21T08:34:29;101355.75;;;18.25
41710;BMP280;59402;48.396;-4.472;2022-08-21T08:36:55;101355.75;;;18.25
41710;BMP280;59402;48.396;-4.472;2022-08-21T08:39:23;101355.75;;;18.25
41710;BMP280;59402;48.396;-4.472;2022-08-21T08:41:48;101355.75;;;18.25
41710;BMP280;59402;48.396;-4.472;2022-08-21T08:44:16;101355.75;;;18.25
41710;BMP280;59402;48.396;-4.472;2022-08-21T08:46:45;101355.75;;;18.25
41710;BMP280;59402;48.396;-4.472;2022-08-21T08:49:19;101355.75;;;18.25
41710;BMP280;59402;48.396;-4.472;2022-08-21T08:54:17;101355.75;;;18.25
41710;BMP280;59402;48.396;-4.472;2022-08-21T08:56:44;101355.75;;;18.25
41710;BMP280;59402;48.396;-4.472;2022-08-21T08:59:15;101355.75;;;18.25
41710;BMP280;59402;48.396;-4.472;2022-08-21T09:01:40;101355.75;;;18.25
41710;BMP280;59402;48.396;-4.472;2022-08-21T09:04:06;101355.75;;;18.25
41710;BMP280;59402;48.396;-4.472;2022-08-21T09:14:42;101355.75;;;18.25
41710;BMP280;59402;48.396;-4.472;2022-08-21T09:25:22;101355.75;;;18.25
41710;BMP280;59402;48.396;-4.472;2022-08-21T09:27:49;101355.75;;;18.25
41710;BMP280;59402;48.396;-4.472;2022-08-21T09:30:15;101355.75;;;18.25
41710;BMP280;59402;48.396;-4.472;2022-08-21T09:32:40;101355.75;;;18.25
41710;BMP280;59402;48.396;-4.472;2022-08-21T09:37:34;101355.75;;;18.25
41710;BMP280;59402;48.396;-4.472;2022-08-21T09:40:00;101355.75;;;18.25
41710;BMP280;59402;48.396;-4.472;2022-08-21T09:42:27;101355.75;;;18.25
41710;BMP280;59402;48.396;-4.472;2022-08-21T09:45:05;101355.75;;;18.25
41710;BMP280;59402;48.396;-4.472;2022-08-21T09:47:31;101355.75;;;18.25
41710;BMP280;59402;48.396;-4.472;2022-08-21T09:49:56;101355.75;;;18.25
41710;BMP280;59402;48.396;-4.472;2022-08-21T09:52:31;101355.75;;;18.25
41710;BMP280;59402;48.396;-4.472;2022-08-21T09:54:57;101204.28;;;20.40
41710;BMP280;59402;48.396;-4.472;2022-08-21T09:57:24;101204.28;;;20.40
41710;BMP280;59402;48.396;-4.472;2022-08-21T10:00:47;101204.28;;;20.40
41710;BMP280;59402;48.396;-4.472;2022-08-21T10:03:18;101204.28;;;20.40
41710;BMP280;59402;48.396;-4.472;2022-08-21T10:05:50;101204.28;;;20.40
41710;BMP280;59402;48.396;-4.472;2022-08-21T10:08:17;101204.28;;;20.40
41710;BMP280;59402;48.396;-4.472;2022-08-21T10:10:43;101204.28;;;20.40
41710;BMP280;59402;48.396;-4.472;2022-08-21T10:13:13;101204.28;;;20.40
41710;BMP280;59402;48.396;-4.472;2022-08-21T10:24:22;101204.28;;;20.40
41710;BMP280;59402;48.396;-4.472;2022-08-21T10:37:44;101204.28;;;20.40
41710;BMP280;59402;48.396;-4.472;2022-08-21T10:47:55;101204.28;;;20.40
41710;BMP280;59402;48.396;-4.472;2022-08-21T10:55:56;101204.28;;;20.40
41710;BMP280;59402;48.396;-4.472;2022-08-21T11:00:55;101204.28;;;20.40
41710;BMP280;59402;48.396;-4.472;2022-08-21T11:03:35;101204.28;;;20.40
41710;BMP280;59402;48.396;-4.472;2022-08-21T11:06:14;101204.28;;;20.40
41710;BMP280;59402;48.396;-4.472;2022-08-21T11:08:42;101204.28;;;20.40
41710;BMP280;59402;48.396;-4.472;2022-08-21T11:11:10;101204.28;;;20.40
41710;BMP280;59402;48.396;-4.472;2022-08-21T11:16:05;101204.28;;;20.40
41710;BMP280;59402;48.396;-4.472;2022-08-21T11:18:34;101204.28;;;20.40
41710;BMP280;59402;48.396;-4.472;2022-08-21T11:21:02;101204.28;;;20.40
41710;BMP280;59402;48.396;-4.472;2022-08-21T11:24:14;101204.28;;;20.40
41710;BMP280;59402;48.396;-4.472;2022-08-21T11:26:19;101204.28;;;20.40
41710;BMP280;59402;48.396;-4.472;2022-08-21T11:28:52;101204.28;;;20.40
41710;BMP280;59402;48.396;-4.472;2022-08-21T11:36:35;101204.28;;;20.40
41710;BMP280;59402;48.396;-4.472;2022-08-21T11:39:10;101204.28;;;20.40
41710;BMP280;59402;48.396;-4.472;2022-08-21T11:41:40;101204.28;;;20.40
41710;BMP280;59402;48.396;-4.472;2022-08-21T11:51:47;101204.28;;;20.40
41710;BMP280;59402;48.396;-4.472;2022-08-21T11:54:34;101204.28;;;20.40
41710;BMP280;59402;48.396;-4.472;2022-08-21T11:57:02;101204.28;;;20.40
41710;BMP280;59402;48.396;-4.472;2022-08-21T11:59:36;101204.28;;;20.40
41710;BMP280;59402;48.396;-4.472;2022-08-21T12:02:05;101204.28;;;20.40
41710;BMP280;59402;48.396;-4.472;2022-08-21T12:04:35;101204.28;;;20.40
41710;BMP280;59402;48.396;-4.472;2022-08-21T12:07:11;101204.28;;;20.40
41710;BMP280;59402;48.396;-4.472;2022-08-21T12:09:37;101204.28;;;20.40
41710;BMP280;59402;48.396;-4.472;2022-08-21T12:12:11;101204.28;;;20.40
41710;BMP280;59402;48.396;-4.472;2022-08-21T12:14:41;101204.28;;;20.40
41710;BMP280;59402;48.396;-4.472;2022-08-21T12:17:08;101204.28;;;20.40
41710;BMP280;59402;48.396;-4.472;2022-08-21T12:19:34;101204.28;;;20.40
41710;BMP280;59402;48.396;-4.472;2022-08-21T12:22:08;101204.28;;;20.40
41710;BMP280;59402;48.396;-4.472;2022-08-21T12:24:44;101204.28;;;20.40
41710;BMP280;59402;48.396;-4.472;2022-08-21T12:29:45;101204.28;;;20.40
41710;BMP280;59402;48.396;-4.472;2022-08-21T12:34:54;101204.28;;;20.40
41710;BMP280;59402;48.396;-4.472;2022-08-21T12:39:46;101204.28;;;20.40
41710;BMP280;59402;48.396;-4.472;2022-08-21T12:42:20;101204.28;;;20.40
41710;BMP280;59402;48.396;-4.472;2022-08-21T12:44:49;101204.28;;;20.40
41710;BMP280;59402;48.396;-4.472;2022-08-21T12:50:03;101204.28;;;20.40
41710;BMP280;59402;48.396;-4.472;2022-08-21T12:52:34;101204.28;;;20.40
41710;BMP280;59402;48.396;-4.472;2022-08-21T12:55:01;101204.28;;;20.40
41710;BMP280;59402;48.396;-4.472;2022-08-21T12:57:29;101204.28;;;20.40
41710;BMP280;59402;48.396;-4.472;2022-08-21T12:59:55;100603.13;;;24.13
41710;BMP280;59402;48.396;-4.472;2022-08-21T13:02:26;100590.72;;;24.08
41710;BMP280;59402;48.396;-4.472;2022-08-21T13:04:53;100635.75;;;24.35
41710;BMP280;59402;48.396;-4.472;2022-08-21T13:07:29;100624.50;;;24.34
41710;BMP280;59402;48.396;-4.472;2022-08-21T13:09:58;100638.38;;;24.35
41710;BMP280;59402;48.396;-4.472;2022-08-21T13:12:24;100656.03;;;24.81
41710;BMP280;59402;48.396;-4.472;2022-08-21T13:14:50;100665.84;;;24.85
41710;BMP280;59402;48.396;-4.472;2022-08-21T13:17:17;100670.16;;;24.80
41710;BMP280;59402;48.396;-4.472;2022-08-21T13:19:51;100647.25;;;24.75
41710;BMP280;59402;48.396;-4.472;2022-08-21T13:22:17;100619.69;;;24.31
41710;BMP280;59402;48.396;-4.472;2022-08-21T13:24:42;100639.94;;;24.42
41710;BMP280;59402;48.396;-4.472;2022-08-21T13:27:22;100556.84;;;23.34
41710;BMP280;59402;48.396;-4.472;2022-08-21T13:29:48;100535.56;;;23.62
41710;BMP280;59402;48.396;-4.472;2022-08-21T13:32:18;100535.66;;;24.21
41710;BMP280;59402;48.396;-4.472;2022-08-21T13:34:44;100559.41;;;24.44
41710;BMP280;59402;48.396;-4.472;2022-08-21T13:37:09;100552.56;;;23.77
41710;BMP280;59402;48.396;-4.472;2022-08-21T13:39:36;100429.09;;;23.02
41710;BMP280;59402;48.396;-4.472;2022-08-21T13:42:03;100184.78;;;23.13
41710;BMP280;59402;48.396;-4.472;2022-08-21T13:44:33;100128.91;;;22.78
41710;BMP280;59402;48.396;-4.472;2022-08-21T13:47:00;100189.00;;;22.48
41710;BMP280;59402;48.396;-4.472;2022-08-21T13:49:29;100624.81;;;21.95
41710;BMP280;59402;48.396;-4.472;2022-08-21T13:51:55;100976.00;;;21.74
41710;BMP280;59402;48.396;-4.472;2022-08-21T13:56:46;100944.44;;;22.23
41710;BMP280;59402;48.396;-4.472;2022-08-21T13:59:12;100885.78;;;22.78
41710;BMP280;59402;48.396;-4.472;2022-08-21T14:01:49;100854.22;;;22.80
41710;BMP280;59402;48.396;-4.472;2022-08-21T14:04:18;100830.75;;;22.73
41710;BMP280;59402;48.396;-4.472;2022-08-21T14:06:45;100806.25;;;22.68
41710;BMP280;59402;48.396;-4.472;2022-08-21T14:09:19;100804.63;;;22.61
41710;BMP280;59402;48.396;-4.472;2022-08-21T14:11:46;100785.56;;;22.54
41710;BMP280;59402;48.396;-4.472;2022-08-21T14:14:25;100772.13;;;22.82
41710;BMP280;59402;48.396;-4.472;2022-08-21T14:16:58;100746.84;;;22.89
41710;BMP280;59402;48.396;-4.472;2022-08-21T14:19:34;100734.22;;;22.86
41710;BMP280;59402;48.396;-4.472;2022-08-21T14:22:12;100727.34;;;22.92
41710;BMP280;59402;48.396;-4.472;2022-08-21T14:24:46;100707.22;;;23.05
41710;BMP280;59402;48.396;-4.472;2022-08-21T14:27:11;100704.66;;;22.73
41710;BMP280;59402;48.396;-4.472;2022-08-21T14:29:41;100745.22;;;22.24
41710;BMP280;59402;48.396;-4.472;2022-08-21T14:32:27;100755.84;;;22.35
41710;BMP280;59402;48.396;-4.472;2022-08-21T14:34:54;100756.84;;;22.15
41710;BMP280;59402;48.396;-4.472;2022-08-21T14:37:20;100745.84;;;22.39
41710;BMP280;59402;48.396;-4.472;2022-08-21T14:39:46;100691.03;;;22.58
41710;BMP280;59402;48.396;-4.472;2022-08-21T14:42:11;100634.03;;;22.68
41710;BMP280;59402;48.396;-4.472;2022-08-21T14:44:37;100675.16;;;22.72
41710;BMP280;59402;48.396;-4.472;2022-08-21T14:47:03;100638.59;;;22.79
41710;BMP280;59402;48.396;-4.472;2022-08-21T14:49:28;100601.91;;;22.74
41710;BMP280;59402;48.396;-4.472;2022-08-21T14:51:57;100601.44;;;22.83
41710;BMP280;59402;48.396;-4.472;2022-08-21T14:54:26;100562.91;;;22.79
41710;BMP280;59402;48.396;-4.472;2022-08-21T14:56:52;100560.19;;;22.61
41710;BMP280;59402;48.396;-4.472;2022-08-21T14:59:20;100556.13;;;22.71
41710;BMP280;59402;48.396;-4.472;2022-08-21T15:01:46;100576.34;;;22.95
41710;BMP280;59402;48.396;-4.472;2022-08-21T15:04:11;100562.19;;;22.65
41710;BMP280;59402;48.396;-4.472;2022-08-21T15:06:36;100615.25;;;22.21
41710;BMP280;59402;48.396;-4.472;2022-08-21T15:09:02;100585.50;;;22.35